Time;durP1;ratioP1;P1;durP2;ratioP2;P2;SDS_P1;SDS_P2;PMS_P1;PMS_P2;Temp;Humidity;BMP_temperature;BMP_pressure;BME280_temperature;BME280_humidity;BME280_pressure;Samples;Min_cycle;Max_cycle;Signal;HPM_P1;HPM_P2
2021/07/22 00:00:24;;;;;;;6.47;5.50;;;19.70;1.00;;;;;;5113948;27;20495;-52
2021/07/22 00:02:50;;;;;;;7.10;5.60;;;19.70;1.00;;;;;;5129285;27;20188;-55
2021/07/22 00:05:16;;;;;;;5.90;5.33;;;19.70;1.00;;;;;;5114921;27;20928;-55
2021/07/22 00:07:42;;;;;;;7.53;6.10;;;19.70;1.00;;;;;;5132117;27;20516;-52
2021/07/22 00:10:08;;;;;;;7.33;5.60;;;19.60;1.00;;;;;;5130617;27;20996;-54
2021/07/22 00:12:34;;;;;;;6.07;5.00;;;19.60;1.00;;;;;;5131309;27;20447;-56
2021/07/22 00:14:59;;;;;;;7.77;5.40;;;19.60;1.00;;;;;;5132367;27;20503;-54
2021/07/22 00:17:25;;;;;;;7.20;5.90;;;19.60;1.00;;;;;;5132884;27;20212;-55
2021/07/22 00:19:50;;;;;;;8.30;5.40;;;19.60;1.00;;;;;;5131803;27;20180;-54
2021/07/22 00:22:16;;;;;;;7.17;4.93;;;19.60;1.00;;;;;;5141875;27;20393;-53
2021/07/22 00:24:42;;;;;;;6.63;4.83;;;19.60;1.00;;;;;;5133526;27;20177;-54
2021/07/22 00:27:07;;;;;;;6.43;5.83;;;19.50;1.00;;;;;;5132669;27;20205;-53
2021/07/22 00:29:36;;;;;;;7.27;5.43;;;19.60;1.00;;;;;;5130883;27;20182;-53
2021/07/22 00:32:02;;;;;;;7.30;5.13;;;19.50;1.00;;;;;;5133483;27;20277;-55
2021/07/22 00:34:27;;;;;;;7.90;5.77;;;19.60;1.00;;;;;;5130050;27;20534;-55
2021/07/22 00:36:53;;;;;;;8.00;5.83;;;19.50;1.00;;;;;;5132320;27;20455;-54
2021/07/22 00:39:18;;;;;;;6.03;5.43;;;19.60;1.00;;;;;;5127386;27;20220;-54
2021/07/22 00:41:45;;;;;;;7.20;5.80;;;19.60;1.00;;;;;;5130730;27;20174;-54
2021/07/22 00:44:10;;;;;;;7.53;6.10;;;19.60;1.00;;;;;;5131583;27;20182;-55
2021/07/22 00:46:36;;;;;;;7.17;5.17;;;19.60;1.00;;;;;;5132917;27;20442;-55
2021/07/22 00:49:01;;;;;;;6.97;5.50;;;19.60;1.00;;;;;;5129217;27;20182;-54
2021/07/22 00:51:27;;;;;;;7.27;5.07;;;19.50;1.00;;;;;;5132216;27;20566;-53
2021/07/22 00:53:52;;;;;;;7.30;5.80;;;19.50;1.00;;;;;;5132755;27;20317;-54
2021/07/22 00:56:18;;;;;;;6.97;5.93;;;19.60;1.00;;;;;;5131970;27;20188;-57
2021/07/22 00:58:43;;;;;;;6.97;6.10;;;19.50;1.00;;;;;;5112130;27;20209;-52
2021/07/22 01:01:09;;;;;;;6.03;5.27;;;19.50;1.00;;;;;;5131370;27;20696;-55
2021/07/22 01:03:38;;;;;;;8.07;5.73;;;19.50;1.00;;;;;;5132243;27;20165;-55
2021/07/22 01:06:04;;;;;;;6.10;5.47;;;19.60;1.00;;;;;;5112447;27;20189;-54
2021/07/22 01:08:30;;;;;;;6.13;5.47;;;19.60;1.00;;;;;;5129655;27;20439;-54
2021/07/22 01:10:55;;;;;;;6.57;5.57;;;19.50;1.00;;;;;;5131665;27;20462;-53
2021/07/22 01:13:21;;;;;;;6.37;5.70;;;19.50;1.00;;;;;;5130367;27;20238;-54
2021/07/22 01:15:46;;;;;;;6.57;5.07;;;19.50;1.00;;;;;;5132547;27;20182;-54
2021/07/22 01:18:12;;;;;;;7.67;5.67;;;19.50;1.00;;;;;;5111415;27;20201;-52
2021/07/22 01:20:37;;;;;;;8.47;6.13;;;19.40;1.00;;;;;;5129642;27;20173;-55
2021/07/22 01:23:03;;;;;;;7.40;4.73;;;19.40;1.00;;;;;;5129607;27;20189;-56
2021/07/22 01:25:29;;;;;;;10.33;6.20;;;19.40;1.00;;;;;;5132240;27;20230;-53
2021/07/22 01:27:56;;;;;;;6.70;5.97;;;19.40;1.00;;;;;;5129106;27;20314;-53
2021/07/22 01:30:22;;;;;;;7.07;5.73;;;19.40;1.00;;;;;;5131687;27;20443;-55
2021/07/22 01:32:47;;;;;;;7.00;5.43;;;19.30;1.00;;;;;;5129025;27;20442;-53
2021/07/22 01:35:13;;;;;;;8.50;5.77;;;19.30;1.00;;;;;;5110088;27;20297;-53
2021/07/22 01:37:40;;;;;;;5.70;5.03;;;19.30;1.00;;;;;;5130818;27;20205;-54
2021/07/22 01:40:07;;;;;;;6.20;5.57;;;19.20;1.00;;;;;;5131428;27;20442;-54
2021/07/22 01:42:32;;;;;;;7.10;5.87;;;19.20;1.00;;;;;;5129029;27;20454;-55
2021/07/22 01:44:58;;;;;;;7.43;4.90;;;19.20;1.00;;;;;;5129709;27;20450;-57
2021/07/22 01:47:24;;;;;;;9.60;6.57;;;19.20;1.00;;;;;;5131340;27;20182;-55
2021/07/22 01:49:49;;;;;;;7.00;5.80;;;19.20;1.00;;;;;;5130829;27;20243;-55
2021/07/22 01:52:15;;;;;;;10.13;5.90;;;19.10;1.00;;;;;;5131921;27;20646;-54
2021/07/22 01:54:41;;;;;;;7.53;5.80;;;19.10;1.00;;;;;;5127167;27;20185;-56
2021/07/22 01:57:07;;;;;;;8.20;5.70;;;19.10;1.00;;;;;;5129263;27;20250;-55
2021/07/22 01:59:35;;;;;;;7.63;5.70;;;19.10;1.00;;;;;;5129969;27;20722;-53
2021/07/22 02:02:09;;;;;;;7.73;5.00;;;19.10;1.00;;;;;;5127866;27;20209;-54
2021/07/22 02:04:36;;;;;;;6.33;5.33;;;19.10;1.00;;;;;;5130460;27;20542;-55
2021/07/22 02:07:02;;;;;;;8.13;5.70;;;19.10;1.00;;;;;;5131634;27;20431;-56
2021/07/22 02:09:28;;;;;;;7.17;5.50;;;19.00;1.00;;;;;;5129644;27;20507;-56
2021/07/22 02:11:56;;;;;;;8.90;8.00;;;19.00;1.00;;;;;;5130956;27;20908;-53
2021/07/22 02:14:22;;;;;;;8.53;6.50;;;19.00;1.00;;;;;;5129514;27;20185;-54
2021/07/22 02:16:47;;;;;;;5.57;5.03;;;19.00;1.00;;;;;;5131180;27;20470;-54
2021/07/22 02:19:13;;;;;;;10.07;6.00;;;18.90;1.00;;;;;;5129958;27;20435;-55
2021/07/22 02:21:40;;;;;;;8.00;5.90;;;18.90;1.00;;;;;;5112618;27;20182;-53
2021/07/22 02:24:07;;;;;;;6.87;5.53;;;18.90;1.00;;;;;;5130734;27;20446;-55
2021/07/22 02:26:33;;;;;;;6.07;5.43;;;18.90;1.00;;;;;;5127654;27;20435;-55
2021/07/22 02:28:59;;;;;;;6.63;5.00;;;18.90;1.00;;;;;;5127046;27;20410;-54
2021/07/22 02:31:25;;;;;;;7.30;6.03;;;18.90;1.00;;;;;;5128789;27;20450;-56
2021/07/22 02:33:50;;;;;;;10.60;6.17;;;18.90;1.00;;;;;;5130301;27;20443;-55
2021/07/22 02:36:16;;;;;;;14.43;5.73;;;18.90;1.00;;;;;;5109608;27;20665;-55
2021/07/22 02:38:42;;;;;;;6.40;5.10;;;18.90;1.00;;;;;;5131285;27;20611;-52
2021/07/22 02:41:07;;;;;;;6.13;5.40;;;18.90;1.00;;;;;;5130525;27;20193;-54
2021/07/22 02:43:33;;;;;;;7.10;5.47;;;18.90;1.00;;;;;;5125995;27;20182;-53
2021/07/22 02:46:07;;;;;;;7.27;5.90;;;18.90;1.00;;;;;;5127582;27;20176;-53
2021/07/22 02:48:34;;;;;;;7.47;6.00;;;18.80;1.00;;;;;;5131019;27;20791;-55
2021/07/22 02:51:03;;;;;;;6.67;4.87;;;18.80;1.00;;;;;;5130296;27;20470;-53
2021/07/22 02:53:29;;;;;;;11.03;6.10;;;18.80;1.00;;;;;;5130053;27;20507;-55
2021/07/22 02:55:55;;;;;;;6.83;4.90;;;18.80;1.00;;;;;;5130570;27;20453;-52
2021/07/22 02:58:21;;;;;;;6.40;5.70;;;18.70;1.00;;;;;;5127581;27;20239;-54
2021/07/22 03:00:47;;;;;;;6.60;5.57;;;18.60;1.00;;;;;;5108917;27;20865;-54
2021/07/22 03:03:12;;;;;;;6.63;5.53;;;18.60;1.00;;;;;;5132655;27;20176;-55
2021/07/22 03:05:38;;;;;;;7.97;4.57;;;18.60;1.00;;;;;;5130679;27;20205;-53
2021/07/22 03:08:03;;;;;;;8.37;5.70;;;18.60;1.00;;;;;;5130627;27;20639;-53
2021/07/22 03:10:29;;;;;;;6.83;5.63;;;18.60;1.00;;;;;;5112181;27;20181;-54
2021/07/22 03:12:54;;;;;;;7.10;5.77;;;18.60;1.00;;;;;;5129819;27;20177;-55
2021/07/22 03:15:20;;;;;;;6.17;5.17;;;18.60;1.00;;;;;;5130926;27;20298;-55
2021/07/22 03:17:45;;;;;;;8.00;5.63;;;18.60;1.00;;;;;;5112131;27;20205;-54
2021/07/22 03:20:12;;;;;;;6.47;5.47;;;18.60;1.00;;;;;;5129951;27;20178;-53
2021/07/22 03:22:37;;;;;;;6.70;5.53;;;18.60;1.00;;;;;;5130888;27;20194;-54
2021/07/22 03:25:03;;;;;;;7.13;5.30;;;18.60;1.00;;;;;;5112632;27;20769;-54
2021/07/22 03:27:29;;;;;;;9.57;5.67;;;18.60;1.00;;;;;;5131723;27;20935;-56
2021/07/22 03:29:54;;;;;;;8.20;5.90;;;18.60;1.00;;;;;;5133401;27;20454;-53
2021/07/22 03:32:20;;;;;;;8.00;5.90;;;18.60;1.00;;;;;;5130842;27;20190;-53
2021/07/22 03:34:45;;;;;;;6.27;5.10;;;18.60;1.00;;;;;;5129907;27;20538;-55
2021/07/22 03:37:11;;;;;;;6.47;5.77;;;18.50;1.00;;;;;;5133684;27;20205;-55
2021/07/22 03:39:37;;;;;;;7.27;5.20;;;18.40;1.00;;;;;;5134408;27;20216;-55
2021/07/22 03:42:04;;;;;;;6.00;5.40;;;18.40;1.00;;;;;;5131162;27;20435;-55
2021/07/22 03:44:29;;;;;;;10.20;5.57;;;18.30;1.00;;;;;;5133827;27;20519;-53
2021/07/22 03:46:55;;;;;;;6.57;5.50;;;18.30;1.00;;;;;;5132906;27;20447;-55
2021/07/22 03:49:20;;;;;;;6.63;5.60;;;18.30;1.00;;;;;;5132105;27;20198;-55
2021/07/22 03:51:46;;;;;;;8.47;5.87;;;18.30;1.00;;;;;;5129918;27;20208;-54
2021/07/22 03:54:13;;;;;;;5.23;4.77;;;18.40;1.00;;;;;;5132182;27;20276;-54
2021/07/22 03:56:38;;;;;;;5.73;5.03;;;18.40;1.00;;;;;;5139124;27;20184;-56
2021/07/22 03:59:04;;;;;;;6.40;5.67;;;18.40;1.00;;;;;;5154703;27;20451;-54
2021/07/22 04:01:29;;;;;;;5.70;4.80;;;18.40;1.00;;;;;;5136878;27;20188;-55
2021/07/22 04:03:55;;;;;;;5.60;4.80;;;18.50;1.00;;;;;;5133854;27;20195;-54
2021/07/22 04:06:21;;;;;;;7.00;5.57;;;18.60;1.00;;;;;;5131641;27;20173;-54
2021/07/22 04:08:46;;;;;;;8.90;4.80;;;18.60;1.00;;;;;;5133798;27;20177;-55
2021/07/22 04:11:12;;;;;;;6.40;5.80;;;18.60;1.00;;;;;;5133135;27;20190;-56
2021/07/22 04:13:37;;;;;;;8.47;6.20;;;18.60;1.00;;;;;;5137384;27;20192;-53
2021/07/22 04:16:03;;;;;;;6.63;5.20;;;18.60;1.00;;;;;;5131897;27;20263;-55
2021/07/22 04:18:30;;;;;;;6.23;4.50;;;18.60;1.00;;;;;;5132261;27;20792;-53
2021/07/22 04:20:56;;;;;;;6.30;4.83;;;18.60;1.00;;;;;;5131070;27;20458;-54
2021/07/22 04:23:21;;;;;;;7.73;5.57;;;18.60;1.00;;;;;;5131604;27;20579;-55
2021/07/22 04:25:47;;;;;;;7.10;5.30;;;18.70;1.00;;;;;;5132713;27;20200;-56
2021/07/22 04:28:13;;;;;;;7.90;5.57;;;18.70;1.00;;;;;;5131591;27;20182;-51
2021/07/22 04:30:39;;;;;;;7.90;6.90;;;18.80;1.00;;;;;;5130390;27;20196;-56
2021/07/22 04:33:05;;;;;;;6.60;4.93;;;18.70;1.00;;;;;;5133148;27;20784;-54
2021/07/22 04:35:30;;;;;;;8.83;5.43;;;18.70;1.00;;;;;;5111670;27;20519;-53
2021/07/22 04:37:56;;;;;;;7.77;5.47;;;18.70;1.00;;;;;;5132150;27;20550;-54
2021/07/22 04:40:21;;;;;;;6.80;5.30;;;18.70;1.00;;;;;;5132945;27;20216;-54
2021/07/22 04:42:47;;;;;;;7.60;5.60;;;18.80;1.00;;;;;;5128202;27;20193;-55
2021/07/22 04:45:13;;;;;;;6.13;5.10;;;18.70;1.00;;;;;;5131475;27;20181;-57
2021/07/22 04:47:39;;;;;;;7.47;5.40;;;18.80;1.00;;;;;;5132582;27;20538;-54
2021/07/22 04:50:05;;;;;;;6.33;5.13;;;18.80;1.00;;;;;;5128980;27;20439;-54
2021/07/22 04:52:31;;;;;;;6.47;4.80;;;18.80;1.00;;;;;;5131986;27;20466;-54
2021/07/22 04:54:56;;;;;;;6.00;5.33;;;18.80;1.00;;;;;;5132645;27;20461;-54
2021/07/22 04:57:22;;;;;;;11.10;6.23;;;19.00;1.00;;;;;;5128977;27;20239;-54
2021/07/22 04:59:47;;;;;;;6.70;5.63;;;19.00;1.00;;;;;;5128474;27;20181;-53
2021/07/22 05:02:15;;;;;;;6.47;4.70;;;19.20;1.00;;;;;;5125015;27;20169;-54
2021/07/22 05:04:41;;;;;;;7.93;4.83;;;19.10;1.00;;;;;;5131895;27;20181;-53
2021/07/22 05:07:06;;;;;;;6.90;5.37;;;19.10;1.00;;;;;;5113012;27;21034;-54
2021/07/22 05:09:32;;;;;;;7.47;6.00;;;19.20;1.00;;;;;;5132513;27;20208;-54
2021/07/22 05:11:57;;;;;;;8.50;5.53;;;20.30;1.00;;;;;;5130068;27;20190;-55
2021/07/22 05:14:23;;;;;;;7.90;6.27;;;19.30;1.00;;;;;;5131154;27;20203;-56
2021/07/22 05:16:49;;;;;;;9.23;6.10;;;19.40;1.00;;;;;;5127981;27;20200;-56
2021/07/22 05:19:15;;;;;;;6.97;4.90;;;19.50;1.00;;;;;;5131898;27;20177;-55
2021/07/22 05:21:41;;;;;;;6.17;5.07;;;19.60;1.00;;;;;;5130771;27;20453;-53
2021/07/22 05:24:07;;;;;;;7.23;4.90;;;19.60;1.00;;;;;;5109433;27;20439;-57
2021/07/22 05:26:32;;;;;;;5.63;4.80;;;19.60;1.00;;;;;;5127633;27;20430;-53
2021/07/22 05:28:58;;;;;;;7.60;6.07;;;19.70;1.00;;;;;;5128098;27;20216;-55
2021/07/22 05:31:24;;;;;;;7.70;4.83;;;19.70;1.00;;;;;;5108475;27;20190;-55
2021/07/22 05:33:49;;;;;;;9.87;5.60;;;19.70;1.00;;;;;;5131576;27;20594;-56
2021/07/22 05:36:15;;;;;;;6.90;5.57;;;19.80;1.00;;;;;;5131499;27;20551;-56
2021/07/22 05:38:40;;;;;;;6.43;5.83;;;19.90;1.00;;;;;;5131279;27;20291;-54
2021/07/22 05:41:09;;;;;;;8.00;5.10;;;20.00;1.00;;;;;;5131413;27;20185;-53
2021/07/22 05:43:35;;;;;;;6.33;5.53;;;20.00;1.00;;;;;;5127213;27;20181;-53
2021/07/22 05:46:01;;;;;;;6.30;5.10;;;20.10;1.00;;;;;;5128055;27;20951;-54
2021/07/22 05:48:26;;;;;;;7.63;6.57;;;20.00;1.00;;;;;;5127553;27;20208;-55
2021/07/22 05:50:52;;;;;;;7.93;5.33;;;20.10;1.00;;;;;;5128930;27;20204;-56
2021/07/22 05:53:18;;;;;;;7.13;5.43;;;20.20;1.00;;;;;;5130322;27;20185;-55
2021/07/22 05:55:44;;;;;;;7.00;5.37;;;20.30;1.00;;;;;;5131366;27;20718;-55
2021/07/22 05:58:10;;;;;;;6.53;4.70;;;20.30;1.00;;;;;;5129995;27;20577;-53
2021/07/22 06:00:37;;;;;;;6.83;5.47;;;20.40;1.00;;;;;;5131803;27;20466;-56
2021/07/22 06:03:06;;;;;;;6.90;5.80;;;20.50;1.00;;;;;;5129715;27;20446;-55
2021/07/22 06:05:32;;;;;;;11.47;6.30;;;20.60;1.00;;;;;;5123104;27;20451;-53
2021/07/22 06:08:00;;;;;;;9.90;6.40;;;20.70;1.00;;;;;;5129505;27;20453;-55
2021/07/22 06:10:26;;;;;;;11.50;6.10;;;20.90;1.00;;;;;;5129071;27;20453;-53
2021/07/22 06:12:54;;;;;;;8.27;6.43;;;21.00;1.00;;;;;;5136604;27;20521;-54
2021/07/22 06:15:19;;;;;;;12.70;10.23;;;21.00;1.00;;;;;;5132532;28;20619;-57
2021/07/22 06:17:45;;;;;;;8.60;7.57;;;21.10;1.00;;;;;;5132301;27;20463;-53
2021/07/22 06:20:11;;;;;;;10.70;6.90;;;21.30;1.00;;;;;;5131591;27;20209;-54
2021/07/22 06:22:38;;;;;;;14.10;6.17;;;21.50;1.00;;;;;;5131690;27;20239;-54
2021/07/22 06:25:04;;;;;;;10.03;6.77;;;21.50;1.00;;;;;;5113151;27;20413;-52
2021/07/22 06:27:30;;;;;;;7.10;5.67;;;21.60;1.00;;;;;;5131592;27;20437;-55
2021/07/22 06:30:00;;;;;;;5.60;5.10;;;21.60;1.00;;;;;;5113318;27;20442;-54
2021/07/22 06:32:26;;;;;;;10.17;6.27;;;21.70;1.00;;;;;;5131627;27;20185;-54
2021/07/22 06:34:51;;;;;;;6.97;5.53;;;21.90;1.00;;;;;;5131517;27;20531;-54
2021/07/22 06:37:17;;;;;;;7.50;5.23;;;21.90;1.00;;;;;;5131418;27;20973;-53
2021/07/22 06:39:42;;;;;;;7.20;5.80;;;22.10;1.00;;;;;;5131653;27;20264;-53
2021/07/22 06:42:08;;;;;;;7.87;5.67;;;22.30;1.00;;;;;;5131008;27;20189;-55
2021/07/22 06:44:33;;;;;;;9.90;6.23;;;22.40;1.00;;;;;;5131417;27;20272;-54
2021/07/22 06:47:02;;;;;;;7.67;5.60;;;22.50;1.00;;;;;;5130274;27;20242;-53
2021/07/22 06:49:28;;;;;;;7.03;6.23;;;22.60;1.00;;;;;;5131158;27;20205;-54
2021/07/22 06:51:53;;;;;;;11.57;6.20;;;22.60;1.00;;;;;;5131073;27;20523;-54
2021/07/22 06:54:20;;;;;;;8.90;6.33;;;22.60;1.00;;;;;;5131171;27;20200;-55
2021/07/22 06:56:46;;;;;;;6.63;5.47;;;22.80;1.00;;;;;;5131000;27;20181;-54
2021/07/22 06:59:11;;;;;;;8.27;5.43;;;22.80;1.00;;;;;;5132546;27;20487;-54
2021/07/22 07:01:37;;;;;;;8.50;5.27;;;22.80;1.00;;;;;;5134655;27;20274;-54
2021/07/22 07:04:03;;;;;;;6.80;5.17;;;22.90;1.00;;;;;;5134693;27;20181;-53
2021/07/22 07:06:29;;;;;;;9.43;5.80;;;23.00;1.00;;;;;;5133967;27;20265;-55
2021/07/22 07:08:55;;;;;;;6.00;5.40;;;23.20;1.00;;;;;;5134559;27;20450;-53
2021/07/22 07:11:20;;;;;;;6.07;5.10;;;23.20;1.00;;;;;;5134766;27;20450;-54
2021/07/22 07:13:46;;;;;;;7.10;5.20;;;23.30;1.00;;;;;;5134935;27;20696;-54
2021/07/22 07:16:12;;;;;;;7.37;5.50;;;23.30;1.00;;;;;;5134845;27;20276;-52
2021/07/22 07:18:37;;;;;;;5.83;5.00;;;23.30;1.00;;;;;;5116457;27;20262;-56
2021/07/22 07:21:04;;;;;;;8.43;5.60;;;23.40;1.00;;;;;;5132965;27;20185;-54
2021/07/22 07:23:33;;;;;;;6.23;5.27;;;23.80;1.00;;;;;;5134367;27;20182;-54
2021/07/22 07:25:59;;;;;;;7.80;5.43;;;23.60;1.00;;;;;;5133206;27;20453;-53
2021/07/22 07:28:25;;;;;;;6.07;4.90;;;23.70;1.00;;;;;;5134277;27;20443;-54
2021/07/22 07:30:51;;;;;;;6.40;5.80;;;23.70;1.00;;;;;;5134558;27;20434;-57
2021/07/22 07:33:17;;;;;;;6.20;5.30;;;23.70;1.00;;;;;;5134363;27;20181;-53
2021/07/22 07:35:42;;;;;;;6.80;5.43;;;23.60;1.00;;;;;;5131521;27;20448;-55
2021/07/22 07:38:08;;;;;;;6.30;5.13;;;23.60;1.00;;;;;;5130499;27;20202;-55
2021/07/22 07:40:34;;;;;;;7.23;5.50;;;23.70;1.00;;;;;;5134303;27;20177;-55
2021/07/22 07:42:59;;;;;;;5.90;5.30;;;23.90;1.00;;;;;;5132606;27;20478;-54
2021/07/22 07:45:25;;;;;;;7.33;6.13;;;24.30;1.00;;;;;;5134091;27;20526;-54
2021/07/22 07:47:52;;;;;;;7.30;5.70;;;24.40;1.00;;;;;;5134276;27;20243;-53
2021/07/22 07:50:18;;;;;;;6.90;5.40;;;24.30;1.00;;;;;;5133569;27;20454;-55
2021/07/22 07:52:44;;;;;;;7.20;6.10;;;24.50;1.00;;;;;;5134361;27;20463;-53
2021/07/22 07:55:10;;;;;;;5.80;5.17;;;24.50;1.00;;;;;;5134071;27;20586;-53
2021/07/22 07:57:36;;;;;;;6.53;5.17;;;24.90;1.00;;;;;;5114344;27;20458;-54
2021/07/22 08:00:03;;;;;;;7.33;6.07;;;25.00;1.00;;;;;;5133706;27;20795;-53
2021/07/22 08:02:29;;;;;;;7.83;6.47;;;25.30;1.00;;;;;;5133999;27;20185;-52
2021/07/22 08:04:56;;;;;;;8.83;5.20;;;25.50;1.00;;;;;;5133712;27;20423;-53
2021/07/22 08:07:22;;;;;;;6.03;5.30;;;25.60;1.00;;;;;;5133823;27;20185;-55
2021/07/22 08:09:48;;;;;;;7.90;6.40;;;26.00;1.00;;;;;;5133400;27;20446;-53
2021/07/22 08:12:15;;;;;;;6.73;5.50;;;26.40;1.00;;;;;;5114473;27;20173;-53
2021/07/22 08:14:41;;;;;;;7.30;6.27;;;26.40;1.00;;;;;;5133884;27;20273;-53
2021/07/22 08:17:07;;;;;;;8.80;6.33;;;26.70;1.00;;;;;;5133670;27;20539;-55
2021/07/22 08:19:33;;;;;;;7.00;6.30;;;26.60;1.00;;;;;;5129954;27;20435;-56
2021/07/22 08:21:59;;;;;;;9.30;7.10;;;26.90;1.00;;;;;;5133401;27;20270;-54
2021/07/22 08:24:24;;;;;;;8.70;6.93;;;27.00;1.00;;;;;;5114297;27;20534;-53
2021/07/22 08:26:50;;;;;;;10.33;6.93;;;27.00;1.00;;;;;;5133265;27;20568;-55
2021/07/22 08:29:15;;;;;;;9.40;7.80;;;27.20;1.00;;;;;;5133537;27;20180;-53
2021/07/22 08:31:41;;;;;;;9.57;8.07;;;27.50;1.00;;;;;;5113566;27;20214;-54
2021/07/22 08:34:07;;;;;;;7.70;6.90;;;27.80;1.00;;;;;;5115021;27;20181;-51
2021/07/22 08:36:32;;;;;;;8.40;7.60;;;28.00;1.00;;;;;;5131564;27;20286;-54
2021/07/22 08:38:58;;;;;;;8.20;7.40;;;28.10;1.00;;;;;;5133023;27;20209;-54
2021/07/22 08:41:24;;;;;;;9.30;8.33;;;28.30;1.00;;;;;;5132896;27;20232;-54
2021/07/22 08:43:51;;;;;;;12.03;9.20;;;28.10;1.00;;;;;;5133093;27;20188;-55
2021/07/22 08:46:20;;;;;;;9.47;8.47;;;27.90;1.00;;;;;;5133085;27;20181;-55
2021/07/22 08:48:45;;;;;;;12.40;9.27;;;27.80;1.00;;;;;;5133001;27;20924;-55
2021/07/22 08:51:11;;;;;;;10.33;8.70;;;27.70;1.00;;;;;;5132837;27;20457;-55
2021/07/22 08:53:37;;;;;;;10.47;9.20;;;28.10;1.00;;;;;;5132991;27;20200;-54
2021/07/22 08:56:07;;;;;;;12.37;8.90;;;28.40;1.00;;;;;;5131486;27;20653;-53
2021/07/22 08:58:36;;;;;;;10.73;8.80;;;28.20;1.00;;;;;;5114174;27;20201;-54
2021/07/22 09:01:03;;;;;;;11.33;9.53;;;27.90;1.00;;;;;;5132645;27;20734;-55
2021/07/22 09:03:29;;;;;;;9.80;8.13;;;28.00;1.00;;;;;;5132613;27;20909;-55
2021/07/22 09:05:55;;;;;;;12.00;9.50;;;27.80;1.00;;;;;;5132395;27;20630;-54
2021/07/22 09:08:21;;;;;;;12.03;9.77;;;27.90;1.00;;;;;;5132619;27;20184;-53
2021/07/22 09:11:09;;;;;;;13.47;8.23;;;27.90;1.00;;;;;;5132675;27;20511;-56
2021/07/22 09:13:35;;;;;;;13.00;10.07;;;28.10;1.00;;;;;;5132439;27;20272;-55
2021/07/22 09:16:01;;;;;;;10.33;9.33;;;28.50;1.00;;;;;;5132373;27;20518;-54
2021/07/22 09:18:31;;;;;;;11.03;9.40;;;28.60;1.00;;;;;;5130624;27;20193;-54
2021/07/22 09:20:57;;;;;;;10.63;8.23;;;28.20;1.00;;;;;;5132709;27;20430;-54
2021/07/22 09:23:27;;;;;;;12.80;9.50;;;28.00;1.00;;;;;;5129461;27;20511;-54
2021/07/22 09:25:54;;;;;;;13.50;10.07;;;28.10;1.00;;;;;;5130926;27;20445;-55
2021/07/22 09:28:25;;;;;;;12.03;10.40;;;27.90;1.00;;;;;;5132191;27;20951;-54
2021/07/22 09:31:03;;;;;;;11.90;9.40;;;27.90;1.00;;;;;;5132135;27;20438;-54
2021/07/22 09:33:38;;;;;;;12.00;10.27;;;27.90;1.00;;;;;;5132258;27;20431;-55
2021/07/22 09:36:19;;;;;;;17.67;11.10;;;28.20;1.00;;;;;;5130932;27;20486;-53
2021/07/22 09:38:44;;;;;;;11.67;10.13;;;28.30;1.00;;;;;;5111138;27;20477;-57
2021/07/22 09:41:23;;;;;;;13.87;10.27;;;28.30;1.00;;;;;;5129490;27;20417;-55
2021/07/22 09:43:49;;;;;;;12.50;10.67;;;28.00;1.00;;;;;;5131145;27;20177;-55
2021/07/22 09:46:15;;;;;;;12.13;10.83;;;27.70;1.00;;;;;;5112640;27;20422;-53
2021/07/22 09:49:07;;;;;;;12.90;11.60;;;27.70;1.00;;;;;;5112618;27;20446;-53
2021/07/22 09:51:33;;;;;;;12.70;11.30;;;27.40;1.00;;;;;;5117796;27;20467;-55
2021/07/22 09:54:08;;;;;;;13.20;11.20;;;27.30;1.00;;;;;;5109819;27;20442;-56
2021/07/22 09:56:36;;;;;;;15.33;12.90;;;27.50;1.00;;;;;;5131116;27;20181;-56
2021/07/22 09:59:02;;;;;;;12.87;11.57;;;27.80;1.00;;;;;;5111365;27;20470;-53
2021/07/22 10:01:27;;;;;;;14.20;11.17;;;28.10;1.00;;;;;;5127210;27;20434;-56
2021/07/22 10:03:53;;;;;;;18.17;11.47;;;28.30;1.00;;;;;;5128242;27;20421;-55
2021/07/22 10:06:19;;;;;;;14.40;12.03;;;28.50;1.00;;;;;;5131078;27;20524;-54
2021/07/22 10:08:45;;;;;;;16.13;13.60;;;28.60;1.00;;;;;;5131402;27;20185;-54
2021/07/22 10:11:11;;;;;;;15.63;13.93;;;28.80;1.00;;;;;;5130577;27;20423;-53
2021/07/22 10:13:40;;;;;;;14.03;12.53;;;28.90;1.00;;;;;;5130693;27;20518;-54
2021/07/22 10:16:11;;;;;;;13.53;11.87;;;29.00;1.00;;;;;;5129840;27;20224;-55
2021/07/22 10:18:45;;;;;;;13.57;12.17;;;28.80;1.00;;;;;;5126245;27;20441;-55
2021/07/22 10:21:11;;;;;;;13.47;12.13;;;28.60;1.00;;;;;;5129389;27;20876;-56
2021/07/22 10:23:39;;;;;;;13.80;11.60;;;28.60;1.00;;;;;;5130583;27;20432;-54
2021/07/22 10:26:05;;;;;;;15.00;12.53;;;28.60;1.00;;;;;;5130140;27;20464;-54
2021/07/22 10:28:31;;;;;;;13.27;11.47;;;28.40;1.00;;;;;;5128281;27;20412;-57
2021/07/22 10:30:57;;;;;;;13.07;11.33;;;28.60;1.00;;;;;;5129454;27;20185;-53
2021/07/22 10:33:24;;;;;;;15.90;13.10;;;28.80;1.00;;;;;;5131103;27;20642;-56
2021/07/22 10:35:54;;;;;;;15.30;12.30;;;29.00;1.00;;;;;;5135534;27;20470;-54
2021/07/22 10:38:27;;;;;;;13.30;11.90;;;28.90;1.00;;;;;;5131527;27;20448;-55
2021/07/22 10:40:57;;;;;;;14.33;11.93;;;29.00;1.00;;;;;;5128525;27;20438;-54
2021/07/22 10:43:32;;;;;;;13.57;12.17;;;29.10;1.00;;;;;;5130616;27;20458;-56
2021/07/22 10:45:58;;;;;;;17.90;12.90;;;29.00;1.00;;;;;;5132226;27;20415;-56
2021/07/22 10:48:27;;;;;;;14.47;12.77;;;29.10;1.00;;;;;;5135548;27;20927;-53
2021/07/22 10:50:55;;;;;;;13.10;11.80;;;29.20;1.00;;;;;;5134720;27;20539;-54
2021/07/22 10:53:50;;;;;;;14.17;12.53;;;29.20;1.00;;;;;;5131153;27;20410;-55
2021/07/22 10:56:18;;;;;;;14.40;12.90;;;29.10;1.00;;;;;;5131519;27;20404;-55
2021/07/22 10:58:44;;;;;;;17.57;14.20;;;29.10;1.00;;;;;;5137801;27;20927;-57
2021/07/22 11:01:09;;;;;;;13.87;12.40;;;29.10;1.00;;;;;;5132455;27;20410;-55
2021/07/22 11:03:35;;;;;;;14.77;13.20;;;29.20;1.00;;;;;;5136209;27;20174;-55
2021/07/22 11:06:08;;;;;;;13.47;12.17;;;29.10;1.00;;;;;;5151436;27;20169;-56
2021/07/22 11:08:39;;;;;;;12.73;11.43;;;29.00;1.00;;;;;;5136748;27;20185;-54
2021/07/22 11:11:09;;;;;;;14.10;12.70;;;29.00;1.00;;;;;;5135037;27;20413;-55
2021/07/22 11:13:37;;;;;;;12.60;11.40;;;28.90;1.00;;;;;;5134724;27;20431;-55
2021/07/22 11:16:32;;;;;;;13.97;12.50;;;28.80;1.00;;;;;;5135060;27;20453;-54
2021/07/22 11:19:14;;;;;;;15.97;13.00;;;28.80;1.00;;;;;;5112302;27;20512;-56
2021/07/22 11:21:48;;;;;;;13.50;11.80;;;29.00;1.00;;;;;;5155388;27;20765;-54
2021/07/22 11:24:16;;;;;;;15.47;13.80;;;28.90;1.00;;;;;;5136344;27;20474;-54
2021/07/22 11:26:43;;;;;;;13.63;12.23;;;28.80;1.00;;;;;;5138260;27;20457;-54
2021/07/22 11:29:10;;;;;;;14.90;13.30;;;28.80;1.00;;;;;;5121116;27;20487;-55
2021/07/22 11:31:54;;;;;;;12.47;11.27;;;28.80;1.00;;;;;;5134695;27;20474;-55
2021/07/22 11:34:28;;;;;;;15.10;13.50;;;29.20;1.00;;;;;;5134460;27;20491;-54
2021/07/22 11:36:56;;;;;;;14.33;12.93;;;29.20;1.00;;;;;;5134316;27;20431;-55
2021/07/22 11:39:38;;;;;;;13.80;12.40;;;29.20;1.00;;;;;;5134161;27;20931;-54
2021/07/22 11:42:11;;;;;;;15.17;13.57;;;29.50;1.00;;;;;;5130280;27;20746;-53
2021/07/22 11:44:37;;;;;;;13.70;12.27;;;29.50;1.00;;;;;;5133491;27;20773;-57
2021/07/22 11:47:12;;;;;;;15.37;13.20;;;29.20;1.00;;;;;;5133641;27;20446;-55
2021/07/22 11:49:38;;;;;;;14.73;12.93;;;28.90;1.00;;;;;;5154854;27;20223;-52
2021/07/22 11:52:04;;;;;;;17.03;13.40;;;28.40;1.00;;;;;;5154282;27;20788;-55
2021/07/22 11:54:31;;;;;;;15.03;13.03;;;28.30;1.00;;;;;;5154596;27;20486;-54
2021/07/22 11:56:58;;;;;;;13.30;11.90;;;28.40;1.00;;;;;;5154255;27;20582;-53
2021/07/22 11:59:28;;;;;;;15.30;13.30;;;28.50;1.00;;;;;;5154742;27;20524;-54
2021/07/22 12:01:56;;;;;;;15.50;13.40;;;28.50;1.00;;;;;;5132118;27;20766;-53
2021/07/22 12:04:33;;;;;;;16.33;12.93;;;28.50;1.00;;;;;;5133951;27;20431;-54
2021/07/22 12:07:00;;;;;;;15.33;13.80;;;28.90;1.00;;;;;;5131835;27;20954;-55
2021/07/22 12:09:26;;;;;;;15.97;13.20;;;29.00;1.00;;;;;;5133592;27;20789;-55
2021/07/22 12:11:54;;;;;;;18.03;13.77;;;29.10;1.00;;;;;;5131443;27;20413;-55
2021/07/22 12:14:23;;;;;;;15.43;13.30;;;29.50;1.00;;;;;;5133678;27;20514;-55
2021/07/22 12:16:49;;;;;;;16.57;13.20;;;29.80;1.00;;;;;;5133457;27;20925;-53
2021/07/22 12:19:15;;;;;;;16.00;13.53;;;30.20;1.00;;;;;;5137129;27;20465;-53
2021/07/22 12:21:40;;;;;;;16.00;14.30;;;30.40;1.00;;;;;;5145685;27;20551;-55
2021/07/22 12:24:17;;;;;;;22.60;15.90;;;30.30;1.00;;;;;;5129088;27;20181;-55
2021/07/22 12:26:42;;;;;;;14.90;13.40;;;30.30;1.00;;;;;;5114510;27;20181;-54
2021/07/22 12:29:08;;;;;;;16.47;13.90;;;30.30;1.00;;;;;;5132889;27;20438;-53
2021/07/22 12:31:39;;;;;;;15.57;13.87;;;30.30;1.00;;;;;;5112578;27;20212;-53
2021/07/22 12:34:06;;;;;;;15.30;13.37;;;30.20;1.00;;;;;;5125292;27;20181;-54
2021/07/22 12:36:36;;;;;;;14.90;13.30;;;30.60;1.00;;;;;;5130006;27;20826;-56
2021/07/22 12:39:14;;;;;;;16.30;14.60;;;30.40;1.00;;;;;;5110452;27;20499;-53
2021/07/22 12:41:41;;;;;;;15.50;14.10;;;30.30;1.00;;;;;;5132001;27;20431;-53
2021/07/22 12:44:07;;;;;;;16.13;14.63;;;30.80;1.00;;;;;;5132184;27;20431;-55
2021/07/22 12:46:33;;;;;;;19.50;14.70;;;31.30;1.00;;;;;;5113659;27;20774;-53
2021/07/22 12:48:59;;;;;;;16.23;14.13;;;31.70;1.00;;;;;;5131922;27;20416;-54